Terminal Aerodrome Forecast
Issued by NWS Pittsburgh, PA

Current Version | Previous Version | Graphics & Text | Print | Product List | Glossary On
Versions: 1 2 3 4 5 6 7 8 9 10 11 12 13 14 15 16 17 18 19 20 21 22 23 24 25 26 27 28 29 30 31 32
000
FTUS41 KPBZ 251720
TAFPIT
TAF
KPIT 251720Z 2518/2624 24008KT P6SM BKN035
     FM260200 23006KT P6SM VCTS BKN035CB
     FM260500 27004KT P6SM BKN025
     FM260800 29005KT 5SM BR BKN015
     FM261300 30004KT P6SM SCT015=

USA.gov is the U.S. government's official web portal to all federal, state and local government web resources and services.